Meath Environmental Platform

Observations for Trim Patrick St

Time AQI Temp °C Hum % Pres Pa CO μg/m³ H₂S μg/m³ NO μg/m³ NO₂ μg/m³ O₃ μg/m³ SO₂ μg/m³ PM1 μg/m³ PM2.5 μg/m³ PM10 μg/m³
Wednesday 5 August 2026
15:24 2 23.6 49 69,402 0 0 2.47 10.55 75.62 6.42 2 6.47 7.12
15:23 2 23.6 49 69,412 0 0 2.39 7.98 59.06 5.73 2 6.48 7.13
15:22 2 23.6 50 69,393 0 0.28 2.58 10.58 65.02 5.96 2 6.4 7.04
15:21 2 23.5 50 69,359 0 3.31 2.6 12.33 85.21 6.23 2 6.41 7.05
15:20 2 23.5 49 69,320 0 0 2.57 10.49 73.89 5.81 2 6.46 7.11
15:19 2 23.5 48 69,294 0 0 2.49 6.48 64.63 6.37 2 6.52 7.17
15:18 2 23.6 49 69,298 0 0 2.53 8.2 72.28 6.35 2 6.48 7.12
15:17 2 23.6 48 69,271 0 0 2.44 6.19 62.86 6.01 2 6.55 7.21
15:16 2 23.6 48 69,267 0 0 2.5 9.08 65.74 5.32 2 6.51 7.17
15:15 2 23.7 48 69,238 0 0 2.32 8.61 63.99 5.71 2 6.53 7.19
15:14 2 23.7 48 69,228 0 0 2.14 7.69 51.38 5.3 2 6.53 7.19
15:13 2 23.7 48 69,250 0 0 2.38 7.7 57.4 6 2 6.53 7.18
15:12 2 23.7 50 69,278 0 0 2.46 9.38 63.29 5.59 2 6.44 7.08
15:11 2 23.6 49 69,246 0 0 2.49 10.25 84.74 6.13 2 6.49 7.14
15:10 2 23.6 49 69,234 0 0 2.53 8.4 63.62 5.43 2 6.48 7.13
15:09 2 23.5 49 69,218 0 0 2.51 10.57 77.75 5.14 2 6.5 7.15
15:08 2 23.5 49 69,199 0 0 2.55 7.19 63.04 5.57 2 6.48 7.13
15:07 2 23.5 49 69,177 0 0 2.53 7.7 64.07 6.15 2 6.5 7.14
15:06 2 23.5 49 69,151 0 0 2.54 7.35 65.63 5.44 2 6.48 7.12
15:05 2 23.4 48 69,143 0 0 2.53 5.69 64.25 5.15 2 6.51 7.16